createdAt,value
2018-04-12T00:00:50.972Z,14.48
2018-04-12T00:01:51.548Z,14.36
2018-04-12T00:02:52.123Z,14.36
2018-04-12T00:03:52.698Z,14.35
2018-04-12T00:04:53.276Z,14.35
2018-04-12T00:05:53.848Z,14.41
2018-04-12T00:06:54.476Z,14.37
2018-04-12T00:07:55.101Z,14.40
2018-04-12T00:08:55.676Z,14.41
2018-04-12T00:09:56.251Z,14.37
2018-04-12T00:10:56.828Z,14.44
2018-04-12T00:11:57.404Z,14.36
2018-04-12T00:12:57.980Z,14.36
2018-04-12T00:13:58.554Z,14.40
2018-04-12T00:14:59.129Z,14.44
2018-04-12T00:15:59.704Z,14.41
2018-04-12T00:17:00.324Z,14.50
2018-04-12T00:18:00.900Z,14.45
2018-04-12T00:19:01.477Z,14.54
2018-04-12T00:20:02.053Z,14.48
2018-04-12T00:21:02.678Z,14.47
2018-04-12T00:22:03.252Z,14.48
2018-04-12T00:23:03.878Z,14.36
2018-04-12T00:24:04.495Z,14.47
2018-04-12T00:25:05.073Z,14.50
2018-04-12T00:26:05.654Z,14.48
2018-04-12T00:27:06.314Z,14.45
2018-04-12T00:28:06.895Z,14.37
2018-04-12T00:29:07.466Z,14.41
2018-04-12T00:30:08.043Z,14.45
2018-04-12T00:31:08.660Z,14.41
2018-04-12T00:32:09.232Z,14.47
2018-04-12T00:33:09.808Z,14.50
2018-04-12T00:34:10.381Z,14.47
2018-04-12T00:35:10.955Z,14.45
2018-04-12T00:36:11.530Z,14.47
2018-04-12T00:37:12.107Z,14.50
2018-04-12T00:38:12.730Z,14.44
2018-04-12T00:39:13.306Z,14.47
2018-04-12T00:40:13.933Z,14.53
2018-04-12T00:41:14.509Z,14.37
2018-04-12T00:42:15.135Z,14.48
2018-04-12T00:43:15.712Z,14.47
2018-04-12T00:44:16.290Z,14.47
2018-04-12T00:45:16.905Z,14.47
2018-04-12T00:46:17.479Z,14.41
2018-04-12T00:47:18.055Z,14.41
2018-04-12T00:48:18.630Z,14.36
2018-04-12T00:49:19.207Z,14.36
2018-04-12T00:50:19.784Z,14.45
2018-04-12T00:51:20.367Z,14.53
2018-04-12T00:52:20.942Z,14.43
2018-04-12T00:53:21.517Z,14.40
2018-04-12T00:54:22.291Z,14.43
2018-04-12T00:55:22.867Z,14.36
2018-04-12T00:56:23.499Z,14.37
2018-04-12T00:57:24.076Z,14.48
2018-04-12T00:58:24.650Z,14.48
2018-04-12T00:59:25.247Z,14.47
2018-04-12T01:00:25.800Z,14.51
2018-04-12T01:01:26.424Z,14.45
2018-04-12T01:02:27.000Z,14.48
2018-04-12T01:03:27.577Z,14.51
2018-04-12T01:04:28.153Z,14.45
2018-04-12T01:05:28.729Z,14.48
2018-04-12T01:06:29.358Z,14.54
2018-04-12T01:07:29.976Z,14.53
2018-04-12T01:08:30.552Z,14.54
2018-04-12T01:09:31.131Z,14.47
2018-04-12T01:10:31.706Z,14.53
2018-04-12T01:11:32.280Z,14.45
2018-04-12T01:12:32.906Z,14.53
2018-04-12T01:13:33.482Z,14.53
2018-04-12T01:14:34.060Z,14.43
2018-04-12T01:15:34.635Z,14.51
2018-04-12T01:16:35.212Z,14.50
2018-04-12T01:17:35.940Z,14.43
2018-04-12T01:18:36.512Z,14.48
2018-04-12T01:19:37.083Z,14.54
2018-04-12T01:20:37.708Z,14.54
2018-04-12T01:21:38.325Z,14.50
2018-04-12T01:22:38.904Z,14.48
2018-04-12T01:23:39.520Z,14.43
2018-04-12T01:24:40.095Z,14.51
2018-04-12T01:25:40.668Z,14.54
2018-04-12T01:26:41.242Z,14.48
2018-04-12T01:27:41.817Z,14.54
2018-04-12T01:28:42.393Z,14.47
2018-04-12T01:29:42.966Z,14.45
2018-04-12T01:30:43.592Z,14.58
2018-04-12T01:31:44.171Z,14.43
2018-04-12T01:32:44.742Z,14.45
2018-04-12T01:33:45.319Z,14.47
2018-04-12T01:34:45.942Z,14.47
2018-04-12T01:35:46.519Z,14.50
2018-04-12T01:36:47.096Z,14.51
2018-04-12T01:37:47.669Z,14.50
2018-04-12T01:38:48.295Z,14.44
2018-04-12T01:39:48.870Z,14.51
2018-04-12T01:40:49.444Z,14.50
2018-04-12T01:41:50.021Z,14.47
2018-04-12T01:42:50.597Z,14.47
2018-04-12T01:43:51.179Z,14.45
2018-04-12T01:44:51.793Z,14.48
2018-04-12T01:45:52.369Z,14.54
2018-04-12T01:46:52.944Z,14.50
2018-04-12T01:47:53.569Z,14.54
2018-04-12T01:48:54.144Z,14.51
2018-04-12T01:49:54.718Z,14.44
2018-04-12T01:50:55.346Z,14.44
2018-04-12T01:51:55.920Z,14.51
2018-04-12T01:52:56.495Z,14.50
2018-04-12T01:53:57.072Z,14.50
2018-04-12T01:54:57.695Z,14.50
2018-04-12T01:55:58.270Z,14.43
2018-04-12T01:56:58.873Z,14.51
2018-04-12T01:57:59.424Z,14.47
2018-04-12T01:59:00.033Z,14.41
2018-04-12T02:00:00.607Z,14.48
2018-04-12T02:01:01.182Z,14.45
2018-04-12T02:02:01.754Z,14.45
2018-04-12T02:03:02.346Z,14.47
2018-04-12T02:04:02.901Z,14.51
2018-04-12T02:05:03.523Z,14.54
2018-04-12T02:06:04.099Z,14.44
2018-04-12T02:07:04.725Z,14.48
2018-04-12T02:08:05.298Z,14.47
2018-04-12T02:09:05.873Z,14.48
2018-04-12T02:10:06.448Z,14.36
2018-04-12T02:11:07.074Z,14.47
2018-04-12T02:12:07.651Z,14.45
2018-04-12T02:13:08.225Z,14.41
2018-04-12T02:14:08.801Z,14.45
2018-04-12T02:15:09.377Z,14.36
2018-04-12T02:16:09.951Z,14.37
2018-04-12T02:17:10.524Z,14.43
2018-04-12T02:18:11.098Z,14.37
2018-04-12T02:19:11.673Z,14.41
2018-04-12T02:20:12.249Z,14.37
2018-04-12T02:21:12.823Z,14.36
2018-04-12T02:22:13.398Z,14.41
2018-04-12T02:23:13.976Z,14.43
2018-04-12T02:24:14.550Z,14.48
2018-04-12T02:25:15.126Z,14.44
2018-04-12T02:26:15.750Z,14.40
2018-04-12T02:27:16.375Z,14.41
2018-04-12T02:28:17.001Z,14.35
2018-04-12T02:29:17.575Z,14.40
2018-04-12T02:30:18.149Z,14.41
2018-04-12T02:31:18.728Z,14.44
2018-04-12T02:32:19.300Z,14.35
2018-04-12T02:33:19.878Z,14.43
2018-04-12T02:34:20.452Z,14.43
2018-04-12T02:35:21.027Z,14.37
2018-04-12T02:36:21.601Z,14.36
2018-04-12T02:37:22.177Z,14.41
2018-04-12T02:38:22.754Z,14.36
2018-04-12T02:39:23.326Z,14.44
2018-04-12T02:40:23.902Z,14.45
2018-04-12T02:41:24.477Z,14.37
2018-04-12T02:42:25.054Z,14.37
2018-04-12T02:43:25.679Z,14.37
2018-04-12T02:44:26.298Z,14.40
2018-04-12T02:45:27.072Z,14.41
2018-04-12T02:46:27.699Z,14.35
2018-04-12T02:47:28.276Z,14.36
2018-04-12T02:48:28.895Z,14.41
2018-04-12T02:49:29.468Z,14.37
2018-04-12T02:50:30.042Z,14.40
2018-04-12T02:51:30.616Z,14.43
2018-04-12T02:52:31.191Z,14.36
2018-04-12T02:53:31.767Z,14.37
2018-04-12T02:54:32.344Z,14.43
2018-04-12T02:55:32.960Z,14.41
2018-04-12T02:56:33.537Z,14.37
2018-04-12T02:57:34.111Z,14.41
2018-04-12T02:58:34.686Z,14.41
2018-04-12T02:59:35.311Z,14.41
2018-04-12T03:00:35.888Z,14.41
2018-04-12T03:01:36.462Z,14.40
2018-04-12T03:02:37.089Z,14.36
2018-04-12T03:03:37.674Z,14.45
2018-04-12T03:04:38.281Z,14.47
2018-04-12T03:05:38.853Z,14.40
2018-04-12T03:06:39.478Z,14.41
2018-04-12T03:07:40.055Z,14.30
2018-04-12T03:08:40.631Z,14.35
2018-04-12T03:09:41.206Z,14.40
2018-04-12T03:10:41.782Z,14.35
2018-04-12T03:11:42.355Z,14.26
2018-04-12T03:12:42.930Z,14.40
2018-04-12T03:13:43.507Z,14.40
2018-04-12T03:14:44.127Z,14.30
2018-04-12T03:15:44.710Z,14.37
2018-04-12T03:16:45.286Z,14.28
2018-04-12T03:17:45.855Z,14.33
2018-04-12T03:18:46.479Z,14.40
2018-04-12T03:19:47.056Z,14.30
2018-04-12T03:20:47.631Z,14.32
2018-04-12T03:21:48.208Z,14.40
2018-04-12T03:22:48.833Z,14.36
2018-04-12T03:23:49.557Z,14.43
2018-04-12T03:24:50.132Z,14.35
2018-04-12T03:25:50.707Z,14.35
2018-04-12T03:26:51.283Z,14.32
2018-04-12T03:27:51.860Z,14.33
2018-04-12T03:28:52.435Z,14.36
2018-04-12T03:29:53.056Z,14.25
2018-04-12T03:30:53.585Z,14.35
2018-04-12T03:31:54.163Z,14.32
2018-04-12T03:32:54.775Z,14.41
2018-04-12T03:33:55.349Z,14.40
2018-04-12T03:34:55.977Z,14.35
2018-04-12T03:35:56.549Z,14.30
2018-04-12T03:36:57.127Z,14.30
2018-04-12T03:37:57.702Z,14.29
2018-04-12T03:38:58.277Z,14.37
2018-04-12T03:39:58.899Z,14.30
2018-04-12T03:40:59.475Z,14.23
2018-04-12T03:42:00.052Z,14.28
2018-04-12T03:43:00.629Z,14.37
2018-04-12T03:44:01.204Z,14.26
2018-04-12T03:45:01.828Z,14.29
2018-04-12T03:46:02.452Z,14.29
2018-04-12T03:47:03.029Z,14.33
2018-04-12T03:48:03.604Z,14.33
2018-04-12T03:49:04.253Z,14.28
2018-04-12T03:50:04.836Z,14.32
2018-04-12T03:51:05.379Z,14.35
2018-04-12T03:52:05.954Z,14.30
2018-04-12T03:53:06.528Z,14.26
2018-04-12T03:54:07.108Z,14.37
2018-04-12T03:55:07.730Z,14.35
2018-04-12T03:56:08.305Z,14.32
2018-04-12T03:57:08.881Z,14.40
2018-04-12T03:58:09.455Z,14.28
2018-04-12T03:59:10.031Z,14.26
2018-04-12T04:00:10.654Z,14.30
2018-04-12T04:01:11.264Z,14.29
2018-04-12T04:02:11.849Z,14.40
2018-04-12T04:03:12.465Z,14.33
2018-04-12T04:04:13.041Z,14.28
2018-04-12T04:05:13.617Z,14.40
2018-04-12T04:06:14.193Z,14.30
2018-04-12T04:07:14.817Z,14.26
2018-04-12T04:08:15.391Z,14.35
2018-04-12T04:09:15.965Z,14.23
2018-04-12T04:10:16.540Z,14.32
2018-04-12T04:11:17.168Z,14.26
2018-04-12T04:12:17.792Z,14.29
2018-04-12T04:13:18.369Z,14.36
2018-04-12T04:14:18.946Z,14.29
2018-04-12T04:15:19.570Z,14.29
2018-04-12T04:16:20.145Z,14.40
2018-04-12T04:17:20.770Z,14.28
2018-04-12T04:18:21.345Z,14.30
2018-04-12T04:19:21.919Z,14.35
2018-04-12T04:20:22.494Z,14.29
2018-04-12T04:21:23.071Z,14.30
2018-04-12T04:22:23.698Z,14.29
2018-04-12T04:23:24.271Z,14.30
2018-04-12T04:24:24.846Z,14.29
2018-04-12T04:25:25.423Z,14.32
2018-04-12T04:26:25.999Z,14.36
2018-04-12T04:27:26.625Z,14.32
2018-04-12T04:28:27.201Z,14.30
2018-04-12T04:29:27.777Z,14.33
2018-04-12T04:30:28.353Z,14.32
2018-04-12T04:31:28.930Z,14.36
2018-04-12T04:32:29.504Z,14.30
2018-04-12T04:33:30.084Z,14.30
2018-04-12T04:34:30.657Z,14.36
2018-04-12T04:35:31.232Z,14.29
2018-04-12T04:36:31.815Z,14.36
2018-04-12T04:37:32.382Z,14.33
2018-04-12T04:38:32.957Z,14.30
2018-04-12T04:39:33.532Z,14.30
2018-04-12T04:40:34.157Z,14.29
2018-04-12T04:41:34.731Z,14.29
2018-04-12T04:42:35.306Z,14.28
2018-04-12T04:43:35.879Z,14.32
2018-04-12T04:44:36.504Z,14.37
2018-04-12T04:45:37.079Z,14.33
2018-04-12T04:46:37.653Z,14.32
2018-04-12T04:47:38.229Z,14.32
2018-04-12T04:48:38.803Z,14.30
2018-04-12T04:49:39.428Z,14.18
2018-04-12T04:50:40.004Z,14.32
2018-04-12T04:51:40.583Z,14.25
2018-04-12T04:52:41.200Z,14.29
2018-04-12T04:53:41.774Z,14.29
2018-04-12T04:54:42.349Z,14.32
2018-04-12T04:55:42.926Z,14.35
2018-04-12T04:56:43.501Z,14.23
2018-04-12T04:57:44.076Z,14.15
2018-04-12T04:58:44.650Z,14.33
2018-04-12T04:59:45.227Z,14.28
2018-04-12T05:00:45.814Z,14.25
2018-04-12T05:01:46.380Z,14.28
2018-04-12T05:02:47.006Z,14.22
2018-04-12T05:03:47.581Z,14.28
2018-04-12T05:04:48.199Z,14.26
2018-04-12T05:05:48.775Z,14.36
2018-04-12T05:06:49.402Z,14.28
2018-04-12T05:07:49.977Z,14.28
2018-04-12T05:08:50.553Z,14.26
2018-04-12T05:09:51.179Z,14.14
2018-04-12T05:10:51.755Z,14.32
2018-04-12T05:11:52.327Z,14.35
2018-04-12T05:12:52.901Z,14.37
2018-04-12T05:13:53.526Z,14.26
2018-04-12T05:14:54.101Z,14.26
2018-04-12T05:15:54.676Z,14.25
2018-04-12T05:16:55.252Z,14.33
2018-04-12T05:17:55.828Z,14.32
2018-04-12T05:18:56.400Z,14.37
2018-04-12T05:19:57.025Z,14.33
2018-04-12T05:20:57.598Z,14.36
2018-04-12T05:21:58.176Z,14.17
2018-04-12T05:22:58.752Z,14.26
2018-04-12T05:23:59.327Z,14.33
2018-04-12T05:24:59.951Z,14.36
2018-04-12T05:26:00.525Z,14.36
2018-04-12T05:27:01.101Z,14.32
2018-04-12T05:28:01.726Z,14.26
2018-04-12T05:29:02.301Z,14.33
2018-04-12T05:30:02.876Z,14.37
2018-04-12T05:31:03.498Z,14.26
2018-04-12T05:32:04.075Z,14.26
2018-04-12T05:33:04.699Z,14.33
2018-04-12T05:34:05.277Z,14.23
2018-04-12T05:35:05.852Z,14.22
2018-04-12T05:36:06.476Z,14.22
2018-04-12T05:37:07.103Z,14.32
2018-04-12T05:38:07.679Z,14.30
2018-04-12T05:39:08.254Z,14.26
2018-04-12T05:40:08.828Z,14.23
2018-04-12T05:41:09.405Z,14.33
2018-04-12T05:42:09.982Z,14.32
2018-04-12T05:43:10.557Z,14.33
2018-04-12T05:44:11.135Z,14.30
2018-04-12T05:45:11.707Z,14.36
2018-04-12T05:46:12.283Z,14.32
2018-04-12T05:47:12.856Z,14.32
2018-04-12T05:48:13.429Z,14.23
2018-04-12T05:49:14.003Z,14.23
2018-04-12T05:50:14.627Z,14.20
2018-04-12T05:51:15.203Z,14.28
2018-04-12T05:52:15.777Z,14.23
2018-04-12T05:53:16.402Z,14.23
2018-04-12T05:54:17.027Z,14.28
2018-04-12T05:55:17.601Z,14.23
2018-04-12T05:56:18.181Z,14.23
2018-04-12T05:57:18.795Z,14.22
2018-04-12T05:58:19.371Z,14.23
2018-04-12T05:59:19.944Z,14.23
2018-04-12T06:00:20.519Z,14.20
2018-04-12T06:01:21.094Z,14.25
2018-04-12T06:02:21.670Z,14.22
2018-04-12T06:03:22.247Z,14.26
2018-04-12T06:04:22.820Z,14.26
2018-04-12T06:05:23.396Z,14.22
2018-04-12T06:06:23.972Z,14.25
2018-04-12T06:07:24.633Z,14.22
2018-04-12T06:08:25.175Z,14.23
2018-04-12T06:09:25.751Z,14.20
2018-04-12T06:10:26.370Z,14.25
2018-04-12T06:11:26.996Z,14.20
2018-04-12T06:12:27.570Z,14.15
2018-04-12T06:13:28.207Z,14.15
2018-04-12T06:14:28.816Z,14.14
2018-04-12T06:15:29.391Z,14.22
2018-04-12T06:16:29.965Z,14.20
2018-04-12T06:17:30.541Z,14.22
2018-04-12T06:18:31.114Z,14.17
2018-04-12T06:19:31.688Z,14.18
2018-04-12T06:20:32.263Z,14.17
2018-04-12T06:21:32.836Z,14.18
2018-04-12T06:22:33.414Z,14.14
2018-04-12T06:23:33.991Z,14.14
2018-04-12T06:24:34.585Z,14.15
2018-04-12T06:25:35.140Z,14.25
2018-04-12T06:26:35.714Z,14.18
2018-04-12T06:27:36.288Z,14.15
2018-04-12T06:28:36.863Z,14.17
2018-04-12T06:29:37.488Z,14.22
2018-04-12T06:30:38.113Z,14.17
2018-04-12T06:31:38.739Z,14.18
2018-04-12T06:32:39.318Z,14.30
2018-04-12T06:33:39.892Z,14.22
2018-04-12T06:34:40.469Z,14.15
2018-04-12T06:35:41.044Z,14.22
2018-04-12T06:36:41.620Z,14.18
2018-04-12T06:37:42.193Z,14.22
2018-04-12T06:38:42.768Z,14.17
2018-04-12T06:39:43.347Z,14.14
2018-04-12T06:40:43.918Z,14.22
2018-04-12T06:41:44.494Z,14.23
2018-04-12T06:42:45.067Z,14.22
2018-04-12T06:43:45.689Z,14.25
2018-04-12T06:44:46.262Z,14.23
2018-04-12T06:45:46.887Z,14.26
2018-04-12T06:46:47.503Z,14.25
2018-04-12T06:47:48.037Z,14.26
2018-04-12T06:48:48.663Z,14.22
2018-04-12T06:49:49.238Z,14.22
2018-04-12T06:50:49.811Z,14.25
2018-04-12T06:51:50.385Z,14.25
2018-04-12T06:52:51.009Z,14.20
2018-04-12T06:53:51.584Z,14.26
2018-04-12T06:54:52.159Z,14.26
2018-04-12T06:55:52.734Z,14.23
2018-04-12T06:56:53.309Z,14.23
2018-04-12T06:57:53.886Z,14.25
2018-04-12T06:58:54.460Z,14.20
2018-04-12T06:59:55.081Z,14.26
2018-04-12T07:00:55.657Z,14.22
2018-04-12T07:01:56.231Z,14.25
2018-04-12T07:02:56.805Z,14.25
2018-04-12T07:03:57.431Z,14.18
2018-04-12T07:04:58.009Z,14.28
2018-04-12T07:05:58.603Z,14.18
2018-04-12T07:06:59.156Z,14.26
2018-04-12T07:07:59.785Z,14.25
2018-04-12T07:09:00.367Z,14.15
2018-04-12T07:10:00.934Z,14.20
2018-04-12T07:11:01.509Z,14.18
2018-04-12T07:12:02.133Z,14.23
2018-04-12T07:13:02.709Z,14.23
2018-04-12T07:14:03.283Z,14.20
2018-04-12T07:15:03.859Z,14.23
2018-04-12T07:16:04.457Z,14.17
2018-04-12T07:17:05.007Z,14.23
2018-04-12T07:18:05.580Z,14.15
2018-04-12T07:19:06.154Z,14.17
2018-04-12T07:20:06.779Z,14.15
2018-04-12T07:21:07.355Z,14.11
2018-04-12T07:22:07.930Z,14.11
2018-04-12T07:23:08.504Z,14.12
2018-04-12T07:24:09.079Z,14.15
2018-04-12T07:25:09.703Z,14.12
2018-04-12T07:26:10.275Z,14.10
2018-04-12T07:27:10.849Z,14.11
2018-04-12T07:28:11.427Z,14.14
2018-04-12T07:29:12.002Z,14.12
2018-04-12T07:30:12.579Z,14.14
2018-04-12T07:31:13.153Z,14.15
2018-04-12T07:32:13.726Z,14.17
2018-04-12T07:33:14.352Z,14.17
2018-04-12T07:34:14.925Z,14.18
2018-04-12T07:35:15.500Z,14.20
2018-04-12T07:36:16.119Z,14.23
2018-04-12T07:37:16.693Z,14.26
2018-04-12T07:38:17.471Z,14.23
2018-04-12T07:39:18.047Z,14.22
2018-04-12T07:40:18.621Z,14.26
2018-04-12T07:41:19.198Z,14.20
2018-04-12T07:42:19.773Z,14.23
2018-04-12T07:43:20.347Z,14.23
2018-04-12T07:44:20.924Z,14.26
2018-04-12T07:45:21.550Z,14.28
2018-04-12T07:46:22.126Z,14.23
2018-04-12T07:47:22.702Z,14.28
2018-04-12T07:48:23.280Z,14.22
2018-04-12T07:49:23.905Z,14.26
2018-04-12T07:50:24.480Z,14.22
2018-04-12T07:51:25.055Z,14.25
2018-04-12T07:52:25.631Z,14.28
2018-04-12T07:53:26.205Z,14.23
2018-04-12T07:54:26.782Z,14.28
2018-04-12T07:55:27.408Z,14.22
2018-04-12T07:56:27.929Z,14.28
2018-04-12T07:57:28.555Z,14.20
2018-04-12T07:58:29.131Z,14.23
2018-04-12T07:59:29.706Z,14.28
2018-04-12T08:00:30.281Z,14.22
2018-04-12T08:01:30.898Z,14.33
2018-04-12T08:02:31.522Z,14.25
2018-04-12T08:03:32.096Z,14.23
2018-04-12T08:04:32.670Z,14.25
2018-04-12T08:05:33.298Z,14.25
2018-04-12T08:06:33.870Z,14.20
2018-04-12T08:07:34.494Z,14.23
2018-04-12T08:08:35.068Z,14.18
2018-04-12T08:09:35.643Z,14.17
2018-04-12T08:10:36.258Z,14.29
2018-04-12T08:11:36.833Z,14.22
2018-04-12T08:12:37.407Z,14.28
2018-04-12T08:13:37.985Z,14.18
2018-04-12T08:14:38.561Z,14.28
2018-04-12T08:15:39.138Z,14.23
2018-04-12T08:16:39.713Z,14.28
2018-04-12T08:17:40.289Z,14.28
2018-04-12T08:18:40.865Z,14.33
2018-04-12T08:19:41.488Z,14.35
2018-04-12T08:20:42.066Z,14.15
2018-04-12T08:21:42.641Z,14.30
2018-04-12T08:22:43.222Z,14.18
2018-04-12T08:23:43.844Z,14.33
2018-04-12T08:24:44.418Z,14.37
2018-04-12T08:25:45.046Z,14.36
2018-04-12T08:26:45.618Z,14.36
2018-04-12T08:27:46.194Z,14.23
2018-04-12T08:28:46.781Z,14.30
2018-04-12T08:29:47.345Z,14.35
2018-04-12T08:30:47.920Z,14.30
2018-04-12T08:31:48.495Z,14.33
2018-04-12T08:32:49.070Z,14.32
2018-04-12T08:33:49.643Z,14.36
2018-04-12T08:34:50.221Z,14.30
2018-04-12T08:35:50.793Z,14.29
2018-04-12T08:36:51.368Z,14.33
2018-04-12T08:37:51.941Z,14.29
2018-04-12T08:38:52.515Z,14.30
2018-04-12T08:39:53.089Z,14.25
2018-04-12T08:40:53.712Z,14.32
2018-04-12T08:41:54.289Z,14.28
2018-04-12T08:42:54.864Z,14.36
2018-04-12T08:43:55.494Z,14.32
2018-04-12T08:44:56.117Z,14.37
2018-04-12T08:45:56.751Z,14.40
2018-04-12T08:46:57.307Z,14.40
2018-04-12T08:47:57.879Z,14.36
2018-04-12T08:48:58.458Z,14.33
2018-04-12T08:49:59.030Z,14.26
2018-04-12T08:50:59.606Z,14.36
2018-04-12T08:52:00.185Z,14.25
2018-04-12T08:53:00.753Z,14.33
2018-04-12T08:54:01.325Z,14.25
2018-04-12T08:55:01.899Z,14.26
2018-04-12T08:56:02.474Z,14.25
2018-04-12T08:57:03.092Z,14.29
2018-04-12T08:58:03.716Z,14.23
2018-04-12T08:59:04.290Z,14.25
2018-04-12T09:00:04.917Z,14.23
2018-04-12T09:01:05.491Z,14.20
2018-04-12T09:02:06.066Z,14.28
2018-04-12T09:03:06.643Z,14.25
2018-04-12T09:04:07.268Z,14.26
2018-04-12T09:05:07.845Z,14.25
2018-04-12T09:06:08.418Z,14.25
2018-04-12T09:07:08.993Z,14.26
2018-04-12T09:08:09.568Z,14.25
2018-04-12T09:09:10.143Z,14.25
2018-04-12T09:10:10.720Z,14.29
2018-04-12T09:11:11.296Z,14.28
2018-04-12T09:12:11.904Z,14.25
2018-04-12T09:13:12.449Z,14.28
2018-04-12T09:14:13.023Z,14.25
2018-04-12T09:15:13.595Z,14.22
2018-04-12T09:16:14.224Z,14.26
2018-04-12T09:17:14.847Z,14.23
2018-04-12T09:18:15.422Z,14.23
2018-04-12T09:19:15.998Z,14.23
2018-04-12T09:20:16.571Z,14.22
2018-04-12T09:21:17.196Z,14.20
2018-04-12T09:22:17.772Z,14.17
2018-04-12T09:23:18.346Z,14.14
2018-04-12T09:24:18.921Z,14.15
2018-04-12T09:25:19.494Z,14.14
2018-04-12T09:26:20.069Z,14.18
2018-04-12T09:27:20.692Z,14.20
2018-04-12T09:28:21.267Z,14.20
2018-04-12T09:29:21.843Z,14.11
2018-04-12T09:30:22.419Z,14.14
2018-04-12T09:31:22.996Z,14.23
2018-04-12T09:32:23.571Z,14.15
2018-04-12T09:33:24.147Z,14.22
2018-04-12T09:34:24.720Z,14.22
2018-04-12T09:35:25.293Z,14.23
2018-04-12T09:36:25.922Z,14.20
2018-04-12T09:37:26.544Z,14.25
2018-04-12T09:38:27.119Z,14.26
2018-04-12T09:39:27.694Z,14.23
2018-04-12T09:40:28.312Z,14.22
2018-04-12T09:41:28.887Z,14.23
2018-04-12T09:42:29.461Z,14.26
2018-04-12T09:43:30.038Z,14.20
2018-04-12T09:44:30.613Z,14.26
2018-04-12T09:45:31.239Z,14.28
2018-04-12T09:46:31.812Z,14.25
2018-04-12T09:47:32.388Z,14.22
2018-04-12T09:48:32.960Z,14.26
2018-04-12T09:49:33.536Z,14.25
2018-04-12T09:50:34.114Z,14.25
2018-04-12T09:51:34.686Z,14.23
2018-04-12T09:52:35.263Z,14.25
2018-04-12T09:53:35.837Z,14.23
2018-04-12T09:54:36.412Z,14.18
2018-04-12T09:55:37.037Z,14.30
2018-04-12T09:56:37.613Z,14.23
2018-04-12T09:57:38.189Z,14.22
2018-04-12T09:58:38.766Z,14.23
2018-04-12T09:59:39.344Z,14.22
2018-04-12T10:00:39.920Z,14.30
2018-04-12T10:01:40.540Z,14.25
2018-04-12T10:02:41.117Z,14.26
2018-04-12T10:03:41.693Z,14.22
2018-04-12T10:04:42.319Z,14.25
2018-04-12T10:05:42.894Z,14.23
2018-04-12T10:06:43.468Z,14.25
2018-04-12T10:07:44.042Z,14.28
2018-04-12T10:08:44.618Z,14.22
2018-04-12T10:09:45.196Z,14.25
2018-04-12T10:10:45.771Z,14.26
2018-04-12T10:11:46.348Z,14.23
2018-04-12T10:12:46.923Z,14.28
2018-04-12T10:13:47.499Z,14.28
2018-04-12T10:14:48.225Z,14.25
2018-04-12T10:15:48.840Z,14.23
2018-04-12T10:16:49.414Z,14.22
2018-04-12T10:17:50.040Z,14.25
2018-04-12T10:18:50.613Z,14.26
2018-04-12T10:19:51.188Z,14.22
2018-04-12T10:20:51.811Z,14.23
2018-04-12T10:21:52.386Z,14.22
2018-04-12T10:22:52.967Z,14.23
2018-04-12T10:23:53.536Z,14.22
2018-04-12T10:24:54.115Z,14.20
2018-04-12T10:25:54.685Z,14.25
2018-04-12T10:26:55.262Z,14.25
2018-04-12T10:27:55.838Z,14.23
2018-04-12T10:28:56.411Z,14.25
2018-04-12T10:29:56.987Z,14.26
2018-04-12T10:30:57.561Z,14.26
2018-04-12T10:31:58.133Z,14.26
2018-04-12T10:32:58.757Z,14.23
2018-04-12T10:33:59.384Z,14.25
2018-04-12T10:34:59.959Z,14.20
2018-04-12T10:36:00.549Z,14.25
2018-04-12T10:37:01.109Z,14.20
2018-04-12T10:38:01.735Z,14.25
2018-04-12T10:39:02.311Z,14.22
2018-04-12T10:40:02.885Z,14.23
2018-04-12T10:41:03.460Z,14.23
2018-04-12T10:42:04.035Z,14.20
2018-04-12T10:43:04.609Z,14.22
2018-04-12T10:44:05.182Z,14.25
2018-04-12T10:45:05.757Z,14.18
2018-04-12T10:46:06.329Z,14.25
2018-04-12T10:47:06.906Z,14.25
2018-04-12T10:48:07.483Z,14.25
2018-04-12T10:49:08.059Z,14.25
2018-04-12T10:50:08.684Z,14.23
2018-04-12T10:51:09.262Z,14.22
2018-04-12T10:52:09.835Z,14.25
2018-04-12T10:53:10.468Z,14.25
2018-04-12T10:54:11.035Z,14.29
2018-04-12T10:55:11.664Z,14.23
2018-04-12T10:56:12.239Z,14.22
2018-04-12T10:57:12.811Z,14.28
2018-04-12T10:58:13.389Z,14.28
2018-04-12T10:59:14.000Z,14.23
2018-04-12T11:00:14.583Z,14.26
2018-04-12T11:01:15.152Z,14.23
2018-04-12T11:02:15.726Z,14.25
2018-04-12T11:03:16.301Z,14.20
2018-04-12T11:04:16.874Z,14.23
2018-04-12T11:05:17.453Z,14.26
2018-04-12T11:06:18.065Z,14.28
2018-04-12T11:07:18.642Z,14.28
2018-04-12T11:08:19.269Z,14.36
2018-04-12T11:09:19.892Z,14.25
2018-04-12T11:10:20.458Z,14.33
2018-04-12T11:11:21.085Z,14.33
2018-04-12T11:12:21.712Z,14.33
2018-04-12T11:13:22.286Z,14.32
2018-04-12T11:14:22.863Z,14.33
2018-04-12T11:15:23.438Z,14.28
2018-04-12T11:16:24.012Z,14.32
2018-04-12T11:17:24.587Z,14.33
2018-04-12T11:18:25.218Z,14.33
2018-04-12T11:19:25.742Z,14.32
2018-04-12T11:20:26.314Z,14.41
2018-04-12T11:21:26.891Z,14.30
2018-04-12T11:22:27.465Z,14.37
2018-04-12T11:23:28.039Z,14.33
2018-04-12T11:24:28.613Z,14.35
2018-04-12T11:25:29.235Z,14.30
2018-04-12T11:26:29.807Z,14.32
2018-04-12T11:27:30.383Z,14.32
2018-04-12T11:28:31.008Z,14.36
2018-04-12T11:29:31.581Z,14.33
2018-04-12T11:30:32.206Z,14.33
2018-04-12T11:31:32.852Z,14.33
2018-04-12T11:32:33.403Z,14.40
2018-04-12T11:33:34.181Z,14.29
2018-04-12T11:34:34.807Z,14.33
2018-04-12T11:35:35.408Z,14.32
2018-04-12T11:36:35.980Z,14.35
2018-04-12T11:37:36.554Z,14.30
2018-04-12T11:38:37.124Z,14.28
2018-04-12T11:39:37.700Z,14.32
2018-04-12T11:40:38.351Z,14.30
2018-04-12T11:41:38.846Z,14.28
2018-04-12T11:42:39.420Z,14.28
2018-04-12T11:43:39.992Z,14.36
2018-04-12T11:44:40.564Z,14.26
2018-04-12T11:45:41.138Z,14.26
2018-04-12T11:46:41.800Z,14.33
2018-04-12T11:47:42.426Z,14.28
2018-04-12T11:48:42.999Z,14.35
2018-04-12T11:49:43.647Z,14.30
2018-04-12T11:50:44.199Z,14.32
2018-04-12T11:51:44.774Z,14.28
2018-04-12T11:52:45.347Z,14.33
2018-04-12T11:53:45.922Z,14.30
2018-04-12T11:54:46.496Z,14.29
2018-04-12T11:55:47.094Z,14.33
2018-04-12T11:56:47.644Z,14.35
2018-04-12T11:57:48.219Z,14.30
2018-04-12T11:58:48.800Z,14.29
2018-04-12T11:59:49.369Z,14.33
2018-04-12T12:00:49.943Z,14.36
2018-04-12T12:01:50.514Z,14.32
2018-04-12T12:02:51.240Z,14.35
2018-04-12T12:03:51.816Z,14.35
2018-04-12T12:04:52.387Z,14.23
2018-04-12T12:05:52.961Z,14.41
2018-04-12T12:06:53.542Z,14.28
2018-04-12T12:07:54.161Z,14.32
2018-04-12T12:08:54.787Z,14.26
2018-04-12T12:09:55.361Z,14.25
2018-04-12T12:10:55.933Z,14.33
2018-04-12T12:11:56.506Z,14.29
2018-04-12T12:12:57.083Z,14.36
2018-04-12T12:13:57.655Z,14.33
2018-04-12T12:14:58.231Z,14.33
2018-04-12T12:15:58.804Z,14.30
2018-04-12T12:16:59.434Z,14.28
2018-04-12T12:18:00.005Z,14.36
2018-04-12T12:19:00.582Z,14.29
2018-04-12T12:20:01.157Z,14.29
2018-04-12T12:21:01.734Z,14.32
2018-04-12T12:22:02.308Z,14.30
2018-04-12T12:23:02.925Z,14.30
2018-04-12T12:24:03.547Z,14.30
2018-04-12T12:25:04.122Z,14.33
2018-04-12T12:26:04.846Z,14.33
2018-04-12T12:27:05.420Z,14.30
2018-04-12T12:28:06.043Z,14.32
2018-04-12T12:29:06.621Z,14.35
2018-04-12T12:30:07.191Z,14.29
2018-04-12T12:31:07.764Z,14.23
2018-04-12T12:32:08.338Z,14.25
2018-04-12T12:33:08.910Z,14.32
2018-04-12T12:34:09.483Z,14.26
2018-04-12T12:35:10.057Z,14.26
2018-04-12T12:36:10.680Z,14.25
2018-04-12T12:37:11.308Z,14.33
2018-04-12T12:38:11.830Z,14.32
2018-04-12T12:39:12.449Z,14.30
2018-04-12T12:40:13.021Z,14.32
2018-04-12T12:41:13.652Z,14.37
2018-04-12T12:42:14.262Z,14.30
2018-04-12T12:43:14.885Z,14.26
2018-04-12T12:44:15.462Z,14.26
2018-04-12T12:45:16.041Z,14.28
2018-04-12T12:46:16.611Z,14.28
2018-04-12T12:47:17.185Z,14.36
2018-04-12T12:48:17.764Z,14.26
2018-04-12T12:49:18.377Z,14.32
2018-04-12T12:50:18.952Z,14.32
2018-04-12T12:51:19.576Z,14.30
2018-04-12T12:52:20.150Z,14.23
2018-04-12T12:53:20.725Z,14.25
2018-04-12T12:54:21.301Z,14.40
2018-04-12T12:55:21.874Z,14.40
2018-04-12T12:56:22.450Z,14.33
2018-04-12T12:57:23.025Z,14.30
2018-04-12T12:58:23.650Z,14.33
2018-04-12T12:59:24.222Z,14.25
2018-04-12T13:00:24.846Z,14.32